Time;durP1;ratioP1;P1;durP2;ratioP2;P2;SDS_P1;SDS_P2;PMS_P1;PMS_P2;Temp;Humidity;BMP_temperature;BMP_pressure;BME280_temperature;BME280_humidity;BME280_pressure;Samples;Min_cycle;Max_cycle;Signal;HPM_P1;HPM_P2
2023/01/24 00:01:58;;;;;;;28.60;22.67;;;3.00;99.90;;;;;;5077385;28;20040;-81
2023/01/24 00:04:24;;;;;;;26.35;22.50;;;3.00;99.90;;;;;;5073778;28;20494;-81
2023/01/24 00:06:49;;;;;;;27.40;22.75;;;2.90;99.90;;;;;;5072094;28;20085;-81
2023/01/24 00:09:15;;;;;;;26.02;21.77;;;2.90;99.90;;;;;;5076694;28;20035;-82
2023/01/24 00:11:40;;;;;;;24.10;20.83;;;2.90;99.90;;;;;;5076020;28;20040;-82
2023/01/24 00:14:06;;;;;;;26.17;21.15;;;3.00;99.90;;;;;;5077827;28;20032;-82
2023/01/24 00:16:32;;;;;;;27.95;22.40;;;2.90;99.90;;;;;;5079863;28;20405;-82
2023/01/24 00:18:57;;;;;;;25.67;21.55;;;2.90;99.90;;;;;;5096708;28;20128;-82
2023/01/24 00:21:24;;;;;;;24.40;21.65;;;3.00;99.90;;;;;;5074985;28;20036;-81
2023/01/24 00:23:52;;;;;;;26.90;22.60;;;3.00;99.90;;;;;;5090791;28;20036;-81
2023/01/24 00:26:19;;;;;;;29.17;23.25;;;2.90;99.90;;;;;;5070979;28;20100;-81
2023/01/24 00:28:46;;;;;;;26.38;21.52;;;3.00;99.90;;;;;;5072982;28;20036;-81
2023/01/24 00:31:12;;;;;;;27.90;22.58;;;2.90;99.90;;;;;;5073179;28;20074;-81
2023/01/24 00:33:37;;;;;;;23.85;20.42;;;2.90;99.90;;;;;;5076756;28;20040;-81
2023/01/24 00:36:04;;;;;;;24.55;21.88;;;2.90;99.90;;;;;;5068882;28;20032;-81
2023/01/24 00:38:33;;;;;;;26.55;21.00;;;3.00;99.90;;;;;;5097481;28;20040;-81
2023/01/24 00:40:59;;;;;;;24.65;20.73;;;3.00;99.90;;;;;;5080451;28;20044;-81
2023/01/24 00:43:26;;;;;;;26.17;22.20;;;2.90;99.90;;;;;;5076730;28;20032;-81
2023/01/24 00:45:52;;;;;;;26.55;22.00;;;2.90;99.90;;;;;;5081071;28;20040;-81
2023/01/24 00:48:18;;;;;;;25.92;21.95;;;2.90;99.90;;;;;;5081229;28;20043;-81
2023/01/24 00:50:43;;;;;;;25.88;22.90;;;2.90;99.90;;;;;;5097903;28;20039;-81
2023/01/24 00:53:09;;;;;;;27.73;21.98;;;2.90;99.90;;;;;;5094866;28;20082;-81
2023/01/24 00:55:44;;;;;;;28.58;23.15;;;2.90;99.90;;;;;;5078589;28;20083;-81
2023/01/24 00:58:09;;;;;;;27.15;23.45;;;3.00;99.90;;;;;;5081660;28;20099;-81
2023/01/24 01:00:36;;;;;;;28.67;23.15;;;2.90;99.90;;;;;;5080022;28;20490;-81
2023/01/24 01:03:02;;;;;;;29.27;23.35;;;2.90;99.90;;;;;;5087200;28;20044;-81
2023/01/24 01:05:28;;;;;;;28.60;23.35;;;2.90;99.90;;;;;;5080824;28;20137;-81
2023/01/24 01:07:54;;;;;;;25.70;21.23;;;2.90;99.90;;;;;;5081932;28;20481;-81
2023/01/24 01:10:19;;;;;;;27.63;22.90;;;2.90;99.90;;;;;;5082399;28;20032;-81
2023/01/24 01:12:47;;;;;;;30.75;24.77;;;2.90;99.90;;;;;;5079860;28;20054;-81
2023/01/24 01:15:13;;;;;;;26.77;22.73;;;2.90;99.90;;;;;;5083042;28;20130;-81
2023/01/24 01:17:39;;;;;;;28.13;23.45;;;2.90;99.90;;;;;;5085573;28;20153;-81
2023/01/24 01:20:05;;;;;;;28.02;22.90;;;2.90;99.90;;;;;;5084509;28;20044;-81
2023/01/24 01:22:30;;;;;;;28.45;23.38;;;2.90;99.90;;;;;;5073399;28;20119;-81
2023/01/24 01:24:56;;;;;;;28.30;23.42;;;2.90;99.90;;;;;;5073846;28;20075;-81
2023/01/24 01:27:22;;;;;;;26.70;22.15;;;2.90;99.90;;;;;;5092952;28;20478;-81
2023/01/24 01:29:47;;;;;;;28.48;23.00;;;2.90;99.90;;;;;;5075515;28;20589;-81
2023/01/24 01:32:13;;;;;;;27.73;22.80;;;2.90;99.90;;;;;;5071311;28;20478;-81
2023/01/24 01:34:38;;;;;;;28.73;23.45;;;2.90;99.90;;;;;;5068004;28;20082;-81
2023/01/24 01:37:04;;;;;;;29.10;23.30;;;2.90;99.90;;;;;;5074594;28;20052;-81
2023/01/24 01:39:29;;;;;;;26.48;21.98;;;3.00;99.90;;;;;;5074472;28;20058;-81
2023/01/24 01:41:55;;;;;;;26.58;22.77;;;3.00;99.90;;;;;;5060483;28;20040;-81
2023/01/24 01:44:40;;;;;;;26.90;21.73;;;3.00;99.90;;;;;;5072444;28;20409;-81
2023/01/24 01:47:25;;;;;;;26.20;22.05;;;3.00;99.90;;;;;;5074702;28;20039;-81
2023/01/24 01:50:03;;;;;;;27.08;21.80;;;3.00;99.90;;;;;;5087053;28;20289;-81
2023/01/24 01:52:38;;;;;;;26.27;21.63;;;3.00;99.90;;;;;;5093907;28;20335;-81
2023/01/24 01:55:14;;;;;;;25.70;20.70;;;3.00;99.90;;;;;;5070361;28;20067;-81
2023/01/24 01:57:41;;;;;;;25.23;20.85;;;3.00;99.90;;;;;;5072442;28;20174;-81
2023/01/24 02:00:15;;;;;;;23.38;20.02;;;3.00;99.90;;;;;;5076695;28;20047;-81
2023/01/24 02:02:44;;;;;;;24.08;20.23;;;3.00;99.90;;;;;;5067398;28;20168;-81
2023/01/24 02:05:13;;;;;;;25.42;21.45;;;3.00;99.90;;;;;;5065916;28;20525;-82
2023/01/24 02:07:46;;;;;;;23.58;19.73;;;3.00;99.90;;;;;;5093550;28;20044;-82
2023/01/24 02:10:12;;;;;;;20.77;17.85;;;3.00;99.90;;;;;;5064350;28;20040;-81
2023/01/24 02:12:42;;;;;;;21.27;18.27;;;3.00;99.90;;;;;;5077542;28;20094;-81
2023/01/24 02:18:00;;;;;;;22.13;18.48;;;3.00;99.90;;;;;;5079911;28;20122;-81
2023/01/24 02:20:26;;;;;;;22.80;20.08;;;3.00;99.90;;;;;;5087234;28;20037;-81
2023/01/24 02:23:16;;;;;;;27.92;20.80;;;3.00;99.90;;;;;;5076291;28;20044;-81
2023/01/24 02:26:00;;;;;;;23.17;19.60;;;3.00;99.90;;;;;;5076252;28;20047;-81
2023/01/24 02:28:26;;;;;;;21.33;17.48;;;3.00;99.90;;;;;;5070715;28;20032;-80
2023/01/24 02:30:55;;;;;;;16.80;14.43;;;3.00;99.90;;;;;;5077338;28;20120;-81
2023/01/24 02:33:21;;;;;;;16.95;15.15;;;3.00;99.90;;;;;;5068858;28;20498;-81
2023/01/24 02:35:47;;;;;;;16.58;14.52;;;3.00;99.90;;;;;;5073693;28;20032;-81
2023/01/24 02:38:28;;;;;;;17.35;14.88;;;3.00;99.90;;;;;;5075891;28;20036;-81
2023/01/24 02:41:04;;;;;;;18.17;15.65;;;3.00;99.90;;;;;;5077857;28;20490;-81
2023/01/24 02:43:31;;;;;;;18.05;15.35;;;3.00;99.90;;;;;;5070070;28;20425;-81
2023/01/24 02:45:56;;;;;;;18.92;16.42;;;3.00;99.90;;;;;;5076107;28;20172;-81
2023/01/24 02:48:22;;;;;;;20.05;17.00;;;3.10;99.90;;;;;;5077872;28;20503;-81
2023/01/24 02:53:31;;;;;;;21.20;18.60;;;3.10;99.90;;;;;;5085623;28;20048;-81
2023/01/24 02:58:48;;;;;;;17.92;16.10;;;3.10;99.90;;;;;;5095589;28;20116;-81
2023/01/24 03:01:14;;;;;;;18.90;16.80;;;3.10;99.90;;;;;;5079407;28;20131;-81
2023/01/24 03:03:42;;;;;;;19.02;16.50;;;3.10;99.90;;;;;;5073929;28;20044;-81
2023/01/24 03:06:12;;;;;;;17.48;15.57;;;3.10;99.90;;;;;;5086856;28;20039;-81
2023/01/24 03:08:39;;;;;;;19.67;16.58;;;3.00;99.90;;;;;;5078494;28;20036;-81
2023/01/24 03:11:05;;;;;;;19.58;17.15;;;3.00;99.90;;;;;;5078311;28;20040;-81
2023/01/24 03:35:27;;;;;;;23.10;19.13;;;3.00;99.90;;;;;;5089323;28;20054;-81
2023/01/24 03:40:53;;;;;;;23.08;19.40;;;3.10;99.90;;;;;;5040615;28;20044;-81
2023/01/24 03:43:19;;;;;;;24.90;20.13;;;3.00;99.90;;;;;;5066547;28;20545;-81
2023/01/24 03:45:44;;;;;;;23.05;19.73;;;3.10;99.90;;;;;;5062877;28;20089;-81
2023/01/24 03:48:12;;;;;;;22.27;19.70;;;3.00;99.90;;;;;;5094870;28;20570;-81
2023/01/24 03:53:27;;;;;;;24.30;19.52;;;3.00;99.90;;;;;;5091579;28;20401;-81
2023/01/24 03:55:55;;;;;;;21.63;19.27;;;3.00;99.90;;;;;;5091500;28;20039;-81
2023/01/24 03:58:22;;;;;;;22.92;20.08;;;3.00;99.90;;;;;;5058399;28;20040;-81
2023/01/24 04:00:47;;;;;;;23.60;19.05;;;2.90;99.90;;;;;;5058687;28;20368;-81
2023/01/24 04:03:13;;;;;;;23.00;19.73;;;2.90;99.90;;;;;;5058079;28;20047;-81
2023/01/24 04:05:39;;;;;;;22.15;18.27;;;2.90;99.90;;;;;;5065334;28;20110;-81
2023/01/24 04:08:05;;;;;;;18.70;16.70;;;2.90;99.90;;;;;;5078743;28;20040;-81
2023/01/24 04:10:31;;;;;;;20.70;17.95;;;3.00;99.90;;;;;;5078935;28;20062;-81
2023/01/24 04:12:57;;;;;;;20.15;17.23;;;3.00;99.90;;;;;;5079174;28;20557;-81
2023/01/24 04:15:29;;;;;;;19.73;16.70;;;2.90;99.90;;;;;;5071685;28;20069;-81
2023/01/24 04:17:56;;;;;;;17.95;15.45;;;2.90;99.90;;;;;;5068083;28;20036;-81
2023/01/24 04:20:23;;;;;;;20.00;15.88;;;2.90;99.90;;;;;;5079479;28;20051;-81
2023/01/24 04:22:48;;;;;;;19.52;16.33;;;2.90;99.90;;;;;;5079165;28;20032;-81
2023/01/24 04:25:14;;;;;;;18.88;16.27;;;2.90;99.90;;;;;;5074608;28;20162;-81
2023/01/24 04:27:40;;;;;;;18.35;15.40;;;2.90;99.90;;;;;;5096127;28;20379;-81
2023/01/24 04:30:08;;;;;;;17.88;15.63;;;2.90;99.90;;;;;;5085918;28;20052;-81
2023/01/24 04:32:34;;;;;;;19.40;16.40;;;2.90;99.90;;;;;;5079172;28;20489;-81
2023/01/24 04:35:00;;;;;;;20.52;16.27;;;2.80;99.90;;;;;;5091011;28;20055;-81
2023/01/24 04:37:26;;;;;;;18.58;15.45;;;2.90;99.90;;;;;;5078661;28;20036;-81
2023/01/24 04:39:52;;;;;;;20.05;16.15;;;2.90;99.90;;;;;;5065267;23;20071;-77
2023/01/24 04:42:18;;;;;;;19.60;15.65;;;2.90;99.90;;;;;;5033179;28;20101;-77
2023/01/24 04:44:43;;;;;;;22.17;15.90;;;2.90;99.90;;;;;;5021204;28;20045;-77
2023/01/24 04:47:09;;;;;;;18.15;15.98;;;2.90;99.90;;;;;;5011377;28;20457;-77
2023/01/24 04:49:35;;;;;;;17.48;15.52;;;2.90;99.90;;;;;;5019585;28;20503;-77
2023/01/24 04:52:01;;;;;;;19.13;16.50;;;2.90;99.90;;;;;;5019327;28;20052;-77
2023/01/24 04:54:27;;;;;;;18.77;15.55;;;2.90;99.90;;;;;;5007957;28;20048;-77
2023/01/24 04:56:52;;;;;;;17.13;15.00;;;2.80;99.90;;;;;;5007707;28;20044;-77
2023/01/24 04:59:18;;;;;;;18.38;14.52;;;2.90;99.90;;;;;;5018274;28;20076;-77
2023/01/24 05:01:47;;;;;;;16.88;14.73;;;2.90;99.90;;;;;;5019106;28;20044;-77
2023/01/24 05:04:12;;;;;;;17.67;14.98;;;2.80;99.90;;;;;;5010183;28;20037;-77
2023/01/24 05:06:38;;;;;;;17.75;15.48;;;2.80;99.90;;;;;;4998589;28;20045;-77
2023/01/24 05:09:04;;;;;;;16.45;14.02;;;2.80;99.90;;;;;;4998984;28;20069;-77
2023/01/24 05:11:32;;;;;;;17.65;15.18;;;2.80;99.90;;;;;;4998645;28;20372;-77
2023/01/24 05:13:58;;;;;;;16.30;14.10;;;2.70;99.90;;;;;;4998039;28;20033;-77
2023/01/24 05:16:24;;;;;;;16.83;14.30;;;2.80;99.90;;;;;;5003813;28;20041;-77
2023/01/24 05:18:53;;;;;;;18.75;15.60;;;2.90;99.90;;;;;;5018601;28;20045;-77
2023/01/24 05:21:19;;;;;;;16.60;13.77;;;2.80;99.90;;;;;;5018494;28;20183;-77
2023/01/24 05:23:51;;;;;;;14.90;13.00;;;2.80;99.90;;;;;;5010241;28;20034;-77
2023/01/24 05:26:25;;;;;;;15.30;12.38;;;2.80;99.90;;;;;;4990784;28;20042;-77
2023/01/24 05:28:52;;;;;;;13.90;12.25;;;2.70;99.90;;;;;;4998556;28;20406;-77
2023/01/24 05:31:23;;;;;;;13.88;12.10;;;2.80;99.90;;;;;;4998568;28;20507;-77
2023/01/24 05:33:49;;;;;;;14.82;12.55;;;2.70;99.90;;;;;;5012302;28;20407;-77
2023/01/24 05:36:21;;;;;;;13.60;12.15;;;2.70;99.90;;;;;;5006998;28;20047;-77
2023/01/24 05:38:50;;;;;;;15.10;12.73;;;2.70;99.90;;;;;;5010631;28;20166;-77
2023/01/24 05:41:18;;;;;;;15.48;12.70;;;2.80;99.90;;;;;;4990588;28;20121;-77
2023/01/24 05:43:48;;;;;;;14.25;12.50;;;2.80;99.90;;;;;;5001349;28;20479;-77
2023/01/24 05:46:19;;;;;;;14.40;12.48;;;2.70;99.90;;;;;;5006785;28;20396;-77
2023/01/24 05:48:50;;;;;;;15.40;12.80;;;2.70;99.90;;;;;;4998522;28;20115;-77
2023/01/24 05:51:19;;;;;;;14.57;12.50;;;2.70;99.90;;;;;;4998669;28;20037;-77
2023/01/24 05:53:48;;;;;;;15.70;12.75;;;2.70;99.90;;;;;;5003085;28;21609;-77
2023/01/24 05:56:16;;;;;;;14.38;12.88;;;2.70;99.90;;;;;;4998348;28;20554;-77
2023/01/24 05:58:44;;;;;;;16.88;13.45;;;2.60;99.90;;;;;;5014348;28;20045;-77
2023/01/24 06:01:13;;;;;;;13.82;12.20;;;2.60;99.90;;;;;;5014921;28;20044;-77
2023/01/24 06:03:40;;;;;;;15.13;12.77;;;2.70;99.90;;;;;;4996079;28;20044;-77
2023/01/24 06:06:07;;;;;;;16.45;12.75;;;2.70;99.90;;;;;;4997946;28;20040;-77
2023/01/24 06:08:35;;;;;;;14.65;12.32;;;2.70;99.90;;;;;;5014246;28;20056;-77
2023/01/24 06:11:17;;;;;;;14.40;12.43;;;2.70;99.90;;;;;;4999421;28;20505;-77
2023/01/24 06:13:46;;;;;;;15.00;13.32;;;2.60;99.90;;;;;;5002977;28;20396;-77
2023/01/24 06:16:18;;;;;;;15.30;12.90;;;2.60;99.90;;;;;;4997867;28;20368;-77
2023/01/24 06:18:44;;;;;;;13.95;12.45;;;2.60;99.90;;;;;;4997864;28;20407;-77
2023/01/24 06:21:39;;;;;;;14.63;12.32;;;2.60;99.90;;;;;;4997888;28;20572;-77
2023/01/24 06:24:14;;;;;;;14.82;12.63;;;2.60;99.90;;;;;;4995383;28;20072;-77
2023/01/24 06:26:41;;;;;;;14.23;12.48;;;2.60;99.90;;;;;;4996910;28;20100;-77
2023/01/24 06:29:09;;;;;;;13.95;12.30;;;2.60;99.90;;;;;;5011315;28;20090;-77
2023/01/24 06:31:52;;;;;;;15.75;12.98;;;2.60;99.90;;;;;;5017964;28;20140;-77
2023/01/24 06:34:57;;;;;;;14.80;13.15;;;2.60;99.90;;;;;;4995935;28;20045;-77
2023/01/24 06:37:41;;;;;;;14.30;12.70;;;2.60;99.90;;;;;;4990582;28;20037;-77
2023/01/24 06:40:11;;;;;;;14.38;12.65;;;2.60;99.90;;;;;;5004695;28;20395;-77
2023/01/24 06:42:38;;;;;;;16.42;13.85;;;2.50;99.90;;;;;;5005890;28;20107;-77
2023/01/24 06:45:05;;;;;;;15.70;13.50;;;2.60;99.90;;;;;;5000641;28;20045;-76
2023/01/24 06:47:31;;;;;;;14.50;12.88;;;2.60;99.90;;;;;;5003501;28;20037;-77
2023/01/24 06:49:57;;;;;;;15.65;13.70;;;2.60;99.90;;;;;;4997439;28;20468;-77
2023/01/24 06:52:23;;;;;;;15.45;13.75;;;2.60;99.90;;;;;;4997716;28;20072;-77
2023/01/24 06:54:49;;;;;;;16.00;14.30;;;2.60;99.90;;;;;;4988184;28;20041;-77
2023/01/24 06:57:15;;;;;;;16.00;14.30;;;2.60;99.90;;;;;;5005269;28;20503;-77
2023/01/24 06:59:40;;;;;;;15.70;14.02;;;2.60;99.90;;;;;;5014250;28;20133;-77
2023/01/24 07:02:08;;;;;;;15.90;14.13;;;2.50;99.90;;;;;;5005203;28;20512;-77
2023/01/24 07:04:37;;;;;;;16.50;14.38;;;2.60;99.90;;;;;;5001069;28;20037;-77
2023/01/24 07:07:05;;;;;;;15.93;14.07;;;2.60;99.90;;;;;;5003724;28;20037;-77
2023/01/24 07:09:31;;;;;;;15.93;14.23;;;2.60;99.90;;;;;;4993078;28;20042;-77
2023/01/24 07:12:00;;;;;;;15.73;13.77;;;2.60;99.90;;;;;;5015444;28;20483;-77
2023/01/24 07:14:26;;;;;;;16.10;14.10;;;2.60;99.90;;;;;;5003909;28;20045;-77
2023/01/24 07:16:55;;;;;;;16.13;14.43;;;2.60;99.90;;;;;;4993417;28;20037;-77
2023/01/24 07:19:25;;;;;;;17.10;14.07;;;2.50;99.90;;;;;;5004497;28;20045;-77
2023/01/24 07:21:56;;;;;;;16.08;14.15;;;2.50;99.90;;;;;;5016379;28;20040;-77
2023/01/24 07:24:25;;;;;;;16.20;13.52;;;2.50;99.90;;;;;;5013225;28;20052;-77
2023/01/24 07:26:54;;;;;;;15.43;13.73;;;2.50;99.90;;;;;;5001328;28;20131;-77
2023/01/24 07:29:21;;;;;;;15.82;14.13;;;2.50;99.90;;;;;;5008841;28;20037;-77
2023/01/24 07:31:48;;;;;;;15.95;14.25;;;2.40;99.90;;;;;;5000168;28;20048;-77
2023/01/24 07:34:18;;;;;;;15.43;13.68;;;2.50;99.90;;;;;;5007218;28;20073;-77
2023/01/24 07:36:45;;;;;;;16.77;14.95;;;2.50;99.90;;;;;;4999918;28;20053;-78
2023/01/24 07:39:11;;;;;;;16.70;14.10;;;2.50;99.90;;;;;;4999375;28;20041;-77
2023/01/24 07:41:46;;;;;;;15.98;14.07;;;2.50;99.90;;;;;;5008815;28;20045;-77
2023/01/24 07:44:13;;;;;;;18.23;14.63;;;2.50;99.90;;;;;;4998985;28;20044;-77
2023/01/24 07:46:42;;;;;;;16.65;14.63;;;2.50;99.90;;;;;;4998628;28;20399;-77
2023/01/24 07:49:08;;;;;;;16.08;14.27;;;2.50;99.90;;;;;;4999031;28;20037;-77
2023/01/24 07:51:33;;;;;;;16.90;13.90;;;2.50;99.90;;;;;;5001559;28;20399;-77
2023/01/24 07:53:59;;;;;;;16.40;14.68;;;2.60;99.90;;;;;;5004749;28;20507;-77
2023/01/24 07:56:27;;;;;;;16.20;14.43;;;2.50;99.90;;;;;;4996916;28;20095;-79
2023/01/24 07:58:57;;;;;;;16.35;14.40;;;2.50;99.90;;;;;;5001050;28;20056;-76
2023/01/24 08:01:54;;;;;;;15.05;13.45;;;2.50;99.90;;;;;;4998045;28;20140;-77
2023/01/24 08:04:25;;;;;;;16.48;14.70;;;2.50;99.90;;;;;;4999551;28;20037;-76
2023/01/24 08:07:19;;;;;;;16.13;14.50;;;2.50;99.90;;;;;;5000065;28;20048;-79
2023/01/24 08:10:00;;;;;;;17.08;15.20;;;2.50;99.90;;;;;;5001737;28;20119;-76
2023/01/24 08:16:27;;;;;;;17.80;15.65;;;2.50;99.90;;;;;;5021499;28;20507;-78
2023/01/24 08:19:40;;;;;;;17.02;15.02;;;2.40;99.90;;;;;;4995963;28;20045;-78
2023/01/24 08:22:37;;;;;;;17.52;15.63;;;2.50;99.90;;;;;;4994458;28;20391;-77
2023/01/24 08:25:20;;;;;;;16.17;14.52;;;2.40;99.90;;;;;;5000652;28;20065;-77
2023/01/24 08:31:18;;;;;;;17.75;15.82;;;2.40;99.90;;;;;;5013237;28;20178;-77
2023/01/24 08:33:58;;;;;;;18.10;15.93;;;2.40;99.90;;;;;;4995348;28;20499;-77
2023/01/24 08:36:55;;;;;;;18.17;15.73;;;2.40;99.90;;;;;;5032726;28;20049;-77
2023/01/24 08:39:28;;;;;;;16.85;15.00;;;2.50;99.90;;;;;;4999122;28;20491;-77
2023/01/24 08:42:06;;;;;;;17.45;14.73;;;2.50;99.90;;;;;;5017318;28;20503;-77
2023/01/24 08:44:44;;;;;;;16.75;14.68;;;2.50;99.90;;;;;;5002261;28;20050;-77
2023/01/24 08:47:24;;;;;;;17.63;15.48;;;2.40;99.90;;;;;;5019481;28;20045;-77
2023/01/24 08:50:19;;;;;;;17.33;15.52;;;2.50;99.90;;;;;;5019409;28;20037;-77
2023/01/24 08:53:04;;;;;;;17.50;15.23;;;2.50;99.90;;;;;;5004589;28;20407;-77
2023/01/24 08:55:40;;;;;;;17.40;15.60;;;2.50;99.90;;;;;;4979986;28;20050;-77
2023/01/24 08:58:33;;;;;;;17.05;15.18;;;2.50;99.90;;;;;;5017192;28;20296;-77
2023/01/24 09:01:17;;;;;;;17.38;15.18;;;2.50;99.90;;;;;;4997453;28;20124;-79
2023/01/24 09:03:49;;;;;;;17.40;15.52;;;2.60;99.90;;;;;;4995557;28;20038;-78
2023/01/24 09:06:29;;;;;;;17.48;15.63;;;2.50;99.90;;;;;;5017811;28;20103;-78
2023/01/24 09:09:05;;;;;;;17.90;16.10;;;2.50;99.90;;;;;;5027513;28;20099;-79
2023/01/24 09:11:39;;;;;;;17.73;15.82;;;2.60;99.90;;;;;;5008019;28;20321;-79
2023/01/24 09:14:11;;;;;;;17.63;15.77;;;2.60;99.90;;;;;;5003804;28;20041;-79
2023/01/24 09:16:39;;;;;;;18.10;16.10;;;2.50;99.90;;;;;;5003108;28;20071;-79
2023/01/24 09:19:16;;;;;;;17.63;15.70;;;2.60;99.90;;;;;;5005924;28;20040;-79
2023/01/24 09:21:56;;;;;;;18.17;16.25;;;2.50;99.90;;;;;;5005931;28;20053;-79
2023/01/24 09:24:32;;;;;;;16.70;14.90;;;2.60;99.90;;;;;;5004292;28;20045;-79
2023/01/24 09:27:04;;;;;;;17.65;15.75;;;2.60;99.90;;;;;;5005756;28;20125;-79
2023/01/24 09:29:39;;;;;;;18.67;16.75;;;2.60;99.90;;;;;;5001438;28;20080;-78
2023/01/24 09:32:07;;;;;;;17.67;15.88;;;2.60;99.90;;;;;;4999971;28;20071;-77
2023/01/24 09:34:33;;;;;;;17.70;15.70;;;2.50;99.90;;;;;;5010883;28;20487;-78
2023/01/24 09:37:09;;;;;;;17.52;15.73;;;2.60;99.90;;;;;;5005258;28;20098;-77
2023/01/24 09:39:40;;;;;;;18.30;16.50;;;2.70;99.90;;;;;;5006490;28;20080;-78
2023/01/24 09:42:15;;;;;;;18.05;16.15;;;2.60;99.90;;;;;;5008219;28;20037;-78
2023/01/24 09:45:18;;;;;;;18.70;16.52;;;2.70;99.90;;;;;;4989459;28;20038;-78
2023/01/24 09:48:05;;;;;;;17.52;15.70;;;2.70;99.90;;;;;;5005365;28;20128;-77
2023/01/24 09:51:02;;;;;;;18.33;16.42;;;2.70;99.90;;;;;;4994931;28;20095;-77
2023/01/24 09:53:54;;;;;;;17.25;15.43;;;2.60;99.90;;;;;;5012668;28;20416;-77
2023/01/24 09:56:37;;;;;;;18.80;16.83;;;2.60;99.90;;;;;;4999774;28;20046;-78
2023/01/24 09:59:29;;;;;;;18.50;16.50;;;2.60;99.90;;;;;;5007166;28;20408;-77
2023/01/24 10:01:58;;;;;;;17.70;15.73;;;2.60;99.90;;;;;;5000327;28;20042;-79
2023/01/24 10:04:41;;;;;;;18.27;16.38;;;2.60;99.90;;;;;;4995678;28;20079;-78
2023/01/24 10:07:30;;;;;;;18.73;16.50;;;2.60;99.90;;;;;;5003826;28;20042;-78
2023/01/24 10:10:18;;;;;;;17.58;15.77;;;2.60;99.90;;;;;;5008919;28;20041;-78
2023/01/24 10:13:25;;;;;;;18.83;16.88;;;2.60;99.90;;;;;;5003339;28;20064;-79
2023/01/24 10:16:46;;;;;;;19.50;17.50;;;2.60;99.90;;;;;;5016419;28;20049;-77
2023/01/24 10:19:33;;;;;;;;;;;2.50;99.90;;;;;;4992247;28;20053;-78
2023/01/24 10:22:37;;;;;;;18.70;16.70;;;2.60;99.90;;;;;;5014205;28;19972;-78
2023/01/24 10:25:30;;;;;;;19.63;17.63;;;2.60;99.90;;;;;;4996090;28;20103;-77
2023/01/24 10:28:51;;;;;;;18.73;16.83;;;2.60;99.90;;;;;;4998075;28;20038;-78
2023/01/24 10:31:42;;;;;;;18.50;16.48;;;2.60;99.90;;;;;;4997406;28;20046;-77
2023/01/24 10:35:02;;;;;;;18.38;16.40;;;2.60;99.90;;;;;;5011191;28;20050;-78
2023/01/24 10:37:40;;;;;;;19.13;17.13;;;2.60;99.90;;;;;;4932657;28;20524;-77
2023/01/24 10:40:14;;;;;;;19.05;17.15;;;2.60;99.90;;;;;;5030701;23;20502;-77
2023/01/24 10:42:40;;;;;;;17.77;15.88;;;2.70;99.90;;;;;;5011724;28;20384;-77
2023/01/24 10:45:33;;;;;;;16.88;15.18;;;2.70;99.90;;;;;;5030544;28;20044;-77
2023/01/24 10:48:20;;;;;;;17.33;15.50;;;2.70;99.90;;;;;;5029878;28;20115;-80
2023/01/24 10:50:46;;;;;;;17.25;15.45;;;2.70;99.90;;;;;;5009419;28;20045;-82
2023/01/24 10:53:24;;;;;;;18.65;16.65;;;2.60;99.90;;;;;;5010771;28;20049;-82
2023/01/24 10:55:56;;;;;;;17.83;16.00;;;2.70;99.90;;;;;;5011473;28;20064;-82
2023/01/24 10:58:35;;;;;;;16.60;14.90;;;2.60;99.90;;;;;;5001759;28;20048;-82
2023/01/24 11:01:07;;;;;;;16.88;15.07;;;2.70;99.90;;;;;;5030475;28;20555;-81
2023/01/24 11:03:37;;;;;;;20.92;18.65;;;2.70;99.90;;;;;;5027416;28;20526;-81
2023/01/24 11:06:03;;;;;;;18.90;17.00;;;2.60;99.90;;;;;;5031264;28;20037;-82
2023/01/24 11:08:37;;;;;;;17.67;15.57;;;2.70;99.90;;;;;;5014562;28;20091;-81
2023/01/24 11:11:17;;;;;;;16.83;15.18;;;2.60;99.90;;;;;;5015101;28;20406;-82
2023/01/24 11:13:44;;;;;;;16.20;14.60;;;2.60;99.90;;;;;;5030312;28;20436;-81
2023/01/24 11:16:16;;;;;;;18.55;15.65;;;2.60;99.90;;;;;;5011592;28;20175;-79
2023/01/24 11:18:54;;;;;;;17.05;15.35;;;2.60;99.90;;;;;;5013138;28;20455;-81
2023/01/24 11:21:20;;;;;;;16.88;15.18;;;2.60;99.90;;;;;;5024692;28;20030;-80
2023/01/24 11:23:58;;;;;;;17.45;15.60;;;2.60;99.90;;;;;;5030598;28;20399;-80
2023/01/24 11:26:29;;;;;;;16.52;14.82;;;2.60;99.90;;;;;;5025365;28;20030;-79
2023/01/24 11:29:05;;;;;;;15.45;13.85;;;2.70;99.90;;;;;;5025522;28;20045;-79
2023/01/24 11:31:47;;;;;;;15.93;14.32;;;2.70;99.90;;;;;;5028589;28;20045;-79
2023/01/24 11:34:37;;;;;;;16.80;15.10;;;2.70;99.90;;;;;;5039384;28;20148;-79
2023/01/24 11:37:49;;;;;;;17.05;15.35;;;2.60;99.90;;;;;;5035754;28;20098;-80
2023/01/24 11:40:40;;;;;;;17.60;15.20;;;2.60;99.90;;;;;;5010288;28;20471;-79
2023/01/24 11:43:24;;;;;;;16.38;14.75;;;2.60;99.90;;;;;;5029270;28;20077;-79
2023/01/24 11:45:59;;;;;;;16.52;14.88;;;2.70;99.90;;;;;;5028959;28;20037;-80
2023/01/24 11:48:51;;;;;;;16.90;15.18;;;2.70;99.90;;;;;;5026148;28;20048;-79
2023/01/24 11:51:46;;;;;;;15.40;13.90;;;2.70;99.90;;;;;;5000004;28;20042;-79
2023/01/24 11:54:50;;;;;;;15.05;13.55;;;2.70;99.90;;;;;;5020245;28;20056;-80
2023/01/24 11:57:44;;;;;;;16.13;14.52;;;2.70;99.90;;;;;;4998058;28;20084;-79
2023/01/24 12:00:44;;;;;;;17.10;15.50;;;2.80;99.90;;;;;;5030725;28;20049;-79
2023/01/24 12:03:28;;;;;;;16.77;15.18;;;2.70;99.90;;;;;;5036813;28;20051;-81
2023/01/24 12:06:13;;;;;;;16.92;15.23;;;2.70;99.90;;;;;;5032946;28;20164;-80
2023/01/24 12:08:56;;;;;;;16.70;15.00;;;2.70;99.90;;;;;;5031629;28;20395;-80
2023/01/24 12:11:40;;;;;;;16.90;15.20;;;2.70;99.90;;;;;;5025884;28;20047;-79
2023/01/24 12:14:48;;;;;;;16.55;14.85;;;2.60;99.90;;;;;;5017141;28;20044;-79
2023/01/24 12:17:17;;;;;;;16.00;14.40;;;2.60;99.90;;;;;;5024949;28;20053;-77
2023/01/24 12:19:56;;;;;;;16.17;14.48;;;2.70;99.90;;;;;;5028849;28;20380;-83
2023/01/24 12:22:25;;;;;;;15.88;14.27;;;2.70;99.90;;;;;;5027826;28;20049;-78
2023/01/24 12:25:23;;;;;;;16.95;15.30;;;2.70;99.90;;;;;;5033107;28;20099;-80
2023/01/24 12:27:50;;;;;;;18.30;16.50;;;2.70;99.90;;;;;;5034226;28;20037;-78
2023/01/24 12:30:39;;;;;;;17.30;15.60;;;2.60;99.90;;;;;;5033307;28;20029;-79
2023/01/24 12:33:31;;;;;;;18.08;16.17;;;2.70;99.90;;;;;;5044758;28;20057;-83
2023/01/24 12:36:35;;;;;;;16.75;15.02;;;2.70;99.90;;;;;;5030633;28;20048;-81
2023/01/24 12:39:10;;;;;;;17.25;15.55;;;2.70;99.90;;;;;;5022950;28;20060;-80
2023/01/24 12:41:37;;;;;;;18.40;16.50;;;2.70;99.90;;;;;;5013945;28;20046;-83
2023/01/24 12:44:27;;;;;;;19.88;17.77;;;2.70;99.90;;;;;;5019695;28;20030;-81
2023/01/24 12:47:13;;;;;;;17.48;15.77;;;2.80;99.90;;;;;;5018139;28;20411;-83
2023/01/24 12:49:51;;;;;;;16.25;14.65;;;2.80;99.90;;;;;;5034488;28;20122;-82
2023/01/24 12:52:23;;;;;;;16.17;14.50;;;2.90;99.90;;;;;;5033527;28;20041;-82
2023/01/24 12:55:15;;;;;;;16.60;15.00;;;2.80;99.90;;;;;;5033913;28;20462;-82
2023/01/24 12:58:13;;;;;;;16.83;15.13;;;2.90;99.90;;;;;;5033575;28;20037;-81
2023/01/24 13:01:05;;;;;;;16.50;14.90;;;2.90;99.90;;;;;;5019816;28;20060;-83
2023/01/24 13:04:00;;;;;;;15.40;13.90;;;2.90;99.90;;;;;;5017274;28;20046;-81
2023/01/24 13:07:08;;;;;;;16.05;14.45;;;2.90;99.90;;;;;;5005173;28;20048;-82
2023/01/24 13:09:39;;;;;;;16.45;14.85;;;2.90;99.90;;;;;;4984540;28;20111;-81
2023/01/24 13:12:13;;;;;;;17.25;15.55;;;2.80;99.90;;;;;;5034613;28;20049;-81
2023/01/24 13:14:42;;;;;;;15.52;14.02;;;2.80;99.90;;;;;;5018425;28;20045;-83
2023/01/24 13:17:29;;;;;;;16.08;14.48;;;2.70;99.90;;;;;;5016517;28;20167;-82
2023/01/24 13:20:21;;;;;;;16.52;14.93;;;2.80;99.90;;;;;;5035642;28;20044;-79
2023/01/24 13:23:01;;;;;;;15.82;14.25;;;2.70;99.90;;;;;;5015910;28;20411;-79
2023/01/24 13:25:58;;;;;;;15.77;14.27;;;2.80;99.90;;;;;;5015823;28;20095;-79
2023/01/24 13:29:02;;;;;;;14.43;13.07;;;2.80;99.90;;;;;;5032337;28;20546;-80
2023/01/24 13:31:49;;;;;;;16.08;14.48;;;2.80;99.90;;;;;;5031107;28;20088;-80
2023/01/24 13:34:19;;;;;;;15.43;13.90;;;2.70;99.90;;;;;;5016504;28;20045;-80
2023/01/24 13:36:48;;;;;;;15.55;13.55;;;2.70;99.90;;;;;;5032813;28;20043;-80
2023/01/24 13:39:35;;;;;;;15.32;13.75;;;2.70;99.90;;;;;;5035761;28;20079;-79
2023/01/24 13:42:31;;;;;;;15.73;14.13;;;2.70;99.90;;;;;;5034528;28;20053;-79
2023/01/24 13:44:57;;;;;;;16.27;14.57;;;2.70;99.90;;;;;;5029543;28;20522;-80
2023/01/24 13:47:25;;;;;;;17.20;15.43;;;2.70;99.90;;;;;;5010015;28;20026;-80
2023/01/24 13:49:55;;;;;;;16.10;14.50;;;2.70;99.90;;;;;;5030943;28;20087;-79
2023/01/24 13:52:33;;;;;;;17.25;15.50;;;2.80;99.90;;;;;;5030157;28;20407;-79
2023/01/24 13:55:18;;;;;;;18.17;16.48;;;2.70;99.90;;;;;;5020678;28;20040;-79
2023/01/24 13:57:44;;;;;;;17.13;15.43;;;2.70;99.90;;;;;;5028626;28;20049;-79
2023/01/24 14:00:13;;;;;;;17.38;15.68;;;2.60;99.90;;;;;;5049407;28;20037;-79